This is the latest recevied weather packets stored in our database for station/object F5SZR-10. If no packets are shown the sender has not sent any weather packets the latest 10 day(s).
| Time | Temp. | Humidity | Pressure | Rain* | Wind** | Luminosity | Snow |
|---|---|---|---|---|---|---|---|
| 1788075477 | 29.44° C | 47% | 1030.7 hPa | - | - | - | - |
| 1788074577 | 29.44° C | 47% | 1030.7 hPa | - | - | - | - |
| 1788073676 | 30° C | 48% | 1030.6 hPa | - | - | - | - |
| 1788072776 | 29.44° C | 49% | 1030.7 hPa | - | - | - | - |
| 1788071876 | 28.33° C | 52% | 1030.7 hPa | - | - | - | - |
| 1788070975 | 23.89° C | 61% | 1030.9 hPa | - | - | - | - |
| 1787992398 | 28.89° C | 45% | 1031.5 hPa | - | - | - | - |
| 1787991498 | 28.89° C | 44% | 1031.5 hPa | - | - | - | - |
| 1787990598 | 28.89° C | 45% | 1031.6 hPa | - | - | - | - |
| 1787989698 | 28.89° C | 45% | 1031.7 hPa | - | - | - | - |
| 1787988798 | 28.89° C | 45% | 1031.7 hPa | - | - | - | - |
| 1787987898 | 28.89° C | 47% | 1031.8 hPa | - | - | - | - |
| 1787986997 | 28.33° C | 47% | 1031.9 hPa | - | - | - | - |
| 1787986097 | 28.33° C | 49% | 1031.9 hPa | - | - | - | - |
| 1787985197 | 27.22° C | 51% | 1032 hPa | - | - | - | - |
| 1787984296 | 22.22° C | 60% | 1032.3 hPa | - | - | - | - |
| 1787902986 | 29.44° C | 46% | 1030.4 hPa | - | - | - | - |
| 1787902086 | 29.44° C | 47% | 1030.1 hPa | - | - | - | - |
| 1787901186 | 28.89° C | 49% | 1029.8 hPa | - | - | - | - |
| 1787900285 | 27.78° C | 53% | 1029.7 hPa | - | - | - | - |
| 1787899385 | 23.33° C | 62% | 1029.4 hPa | - | - | - | - |
| 1787820062 | 31.11° C | 48% | 1022.1 hPa | - | - | - | - |
| 1787819161 | 31.11° C | 48% | 1022.5 hPa | - | - | - | - |
| 1787818261 | 31.11° C | 48% | 1022.5 hPa | - | - | - | - |
| 1787817361 | 30.56° C | 49% | 1022.5 hPa | - | - | - | - |
* Rain since midnight (hover to see other rain measurements)
** Current wind speed in m/s (hover to see current wind gust speed)